Time;durP1;ratioP1;P1;durP2;ratioP2;P2;SDS_P1;SDS_P2;PMS_P1;PMS_P2;Temp;Humidity;BMP_temperature;BMP_pressure;BME280_temperature;BME280_humidity;BME280_pressure;Samples;Min_cycle;Max_cycle;Signal;HPM_P1;HPM_P2
2022/10/03 00:00:59;;;;;;;1.27;0.75;;;;;;;;;;5058731;28;20048;-53
2022/10/03 00:04:00;;;;;;;0.82;0.73;;;;;;;;;;5064535;28;20036;-48
2022/10/03 00:06:43;;;;;;;3.60;1.00;;;;;;;;;;5070125;28;20038;-52
2022/10/03 00:09:23;;;;;;;1.52;0.90;;;;;;;;;;5081787;28;20066;-54
2022/10/03 00:12:03;;;;;;;1.77;0.80;;;;;;;;;;5083926;28;20028;-52
2022/10/03 00:14:38;;;;;;;0.90;0.90;;;;;;;;;;5080242;28;20550;-54
2022/10/03 00:17:14;;;;;;;2.15;0.80;;;;;;;;;;5082433;28;20056;-48
2022/10/03 00:20:01;;;;;;;0.90;0.70;;;;;;;;;;5085811;28;20520;-51
2022/10/03 00:22:43;;;;;;;2.17;0.77;;;;;;;;;;5085287;28;20040;-54
2022/10/03 00:25:14;;;;;;;;;;;;;;;;;;5088485;28;20040;-52
2022/10/03 00:27:44;;;;;;;2.78;0.80;;;;;;;;;;5082443;28;19924;-52
2022/10/03 00:30:21;;;;;;;2.00;0.77;;;;;;;;;;5084627;28;20040;-52
2022/10/03 00:33:02;;;;;;;2.47;0.90;;;;;;;;;;5084111;28;20161;-53
2022/10/03 00:35:47;;;;;;;0.80;0.80;;;;;;;;;;5082487;28;20032;-53
2022/10/03 00:38:40;;;;;;;2.47;0.50;;;;;;;;;;5085577;28;20438;-53
2022/10/03 00:41:38;;;;;;;3.25;0.93;;;;;;;;;;5063758;28;20491;-49
2022/10/03 00:44:22;;;;;;;1.67;0.52;;;;;;;;;;5055222;28;20055;-48
2022/10/03 00:47:02;;;;;;;4.00;1.02;;;;;;;;;;5082310;28;20656;-49
2022/10/03 00:50:14;;;;;;;0.77;0.70;;;;;;;;;;5083159;28;20382;-52
2022/10/03 00:52:58;;;;;;;1.63;0.80;;;;;;;;;;5078436;28;20044;-53
2022/10/03 00:55:56;;;;;;;0.90;0.75;;;;;;;;;;5063467;28;20032;-51
2022/10/03 00:58:47;;;;;;;2.00;0.93;;;;;;;;;;5006008;28;20037;-51
2022/10/03 01:01:27;;;;;;;3.95;1.15;;;;;;;;;;5045082;28;20103;-51
2022/10/03 01:03:58;;;;;;;1.30;0.80;;;;;;;;;;5042859;28;20041;-51
2022/10/03 01:06:44;;;;;;;3.20;0.73;;;;;;;;;;5042429;28;20028;-51
2022/10/03 01:09:25;;;;;;;2.80;0.80;;;;;;;;;;5047661;28;20416;-51
2022/10/03 01:12:05;;;;;;;2.17;1.10;;;;;;;;;;5048546;28;20033;-51
2022/10/03 01:15:09;;;;;;;1.50;1.00;;;;;;;;;;5046031;28;20080;-51
2022/10/03 01:17:34;;;;;;;4.05;0.85;;;;;;;;;;4986576;28;20450;-51
2022/10/03 01:20:13;;;;;;;1.85;0.88;;;;;;;;;;4985889;28;20039;-53
2022/10/03 01:23:10;;;;;;;3.33;0.82;;;;;;;;;;4989187;28;20141;-52
2022/10/03 01:26:30;;;;;;;1.13;0.95;;;;;;;;;;4907909;29;20044;-49
2022/10/03 01:32:14;;;;;;;1.45;0.80;;;;;;;;;;4872879;29;20447;-54
2022/10/03 01:34:57;;;;;;;4.38;0.70;;;;;;;;;;4887402;29;20041;-48
2022/10/03 01:37:30;;;;;;;4.05;0.90;;;;;;;;;;4892516;29;20040;-49
2022/10/03 01:40:33;;;;;;;1.52;1.00;;;;;;;;;;4890787;29;20410;-49
2022/10/03 01:43:01;;;;;;;;;;;;;;;;;;4890807;29;20049;-50
2022/10/03 01:45:36;;;;;;;3.47;1.00;;;;;;;;;;4909844;29;19930;-51
2022/10/03 01:48:50;;;;;;;2.25;1.00;;;;;;;;;;4911458;29;20071;-50
2022/10/03 01:51:23;;;;;;;1.63;0.90;;;;;;;;;;4913104;29;20050;-49
2022/10/03 01:54:06;;;;;;;3.65;1.05;;;;;;;;;;4916054;29;20083;-52
2022/10/03 01:56:51;;;;;;;6.70;1.10;;;;;;;;;;4947145;28;20055;-48
2022/10/03 01:59:24;;;;;;;1.95;1.00;;;;;;;;;;4946281;28;20039;-49
2022/10/03 02:02:01;;;;;;;1.30;1.17;;;;;;;;;;4970805;28;20041;-47
2022/10/03 02:04:33;;;;;;;1.88;1.08;;;;;;;;;;5006526;28;20081;-48
2022/10/03 02:07:16;;;;;;;5.25;1.05;;;;;;;;;;5006472;28;20029;-51
2022/10/03 02:09:58;;;;;;;2.25;1.00;;;;;;;;;;5062115;28;20135;-55
2022/10/03 02:12:34;;;;;;;2.15;0.90;;;;;;;;;;5063841;28;20032;-49
2022/10/03 02:15:18;;;;;;;2.03;0.98;;;;;;;;;;5059812;28;20076;-53
2022/10/03 02:18:13;;;;;;;3.55;1.30;;;;;;;;;;5067935;28;20047;-49
2022/10/03 02:20:47;;;;;;;3.10;1.10;;;;;;;;;;5065758;28;20044;-50
2022/10/03 02:23:31;;;;;;;3.38;1.00;;;;;;;;;;5066924;28;20052;-49
2022/10/03 02:26:34;;;;;;;3.95;1.02;;;;;;;;;;5083545;28;20040;-49
2022/10/03 02:29:19;;;;;;;1.63;1.05;;;;;;;;;;5087613;27;20115;-49
2022/10/03 02:31:44;;;;;;;1.67;0.82;;;;;;;;;;5086163;28;20032;-52
2022/10/03 02:34:40;;;;;;;2.30;1.02;;;;;;;;;;5088098;28;20047;-50
2022/10/03 02:37:08;;;;;;;3.05;1.30;;;;;;;;;;5082118;28;20032;-52
2022/10/03 02:39:39;;;;;;;2.40;0.95;;;;;;;;;;5074520;28;20048;-50
2022/10/03 02:42:42;;;;;;;6.95;2.33;;;;;;;;;;5065843;28;20171;-51
2022/10/03 02:45:11;;;;;;;7.10;1.23;;;;;;;;;;5077766;28;20040;-50
2022/10/03 02:48:10;;;;;;;2.15;1.05;;;;;;;;;;5083810;28;20028;-49
2022/10/03 02:51:08;;;;;;;6.55;1.30;;;;;;;;;;5088111;28;20396;-52
2022/10/03 02:54:08;;;;;;;2.38;1.05;;;;;;;;;;5084257;28;20498;-51
2022/10/03 02:57:06;;;;;;;1.02;0.80;;;;;;;;;;5085085;28;20036;-49
2022/10/03 03:00:01;;;;;;;2.38;1.05;;;;;;;;;;5085738;28;20400;-48
2022/10/03 03:02:30;;;;;;;2.92;1.20;;;;;;;;;;5086295;28;20115;-50
2022/10/03 03:05:17;;;;;;;1.35;0.98;;;;;;;;;;5085428;28;20040;-50
2022/10/03 03:08:07;;;;;;;10.63;1.10;;;;;;;;;;5084258;28;20028;-51
2022/10/03 03:10:59;;;;;;;4.30;1.17;;;;;;;;;;5065372;28;20051;-49
2022/10/03 03:13:34;;;;;;;3.63;1.10;;;;;;;;;;5022937;28;20041;-48
2022/10/03 03:16:27;;;;;;;1.30;0.90;;;;;;;;;;5021925;28;20120;-51
2022/10/03 03:18:58;;;;;;;0.90;0.73;;;;;;;;;;5023337;28;20041;-50
2022/10/03 03:21:40;;;;;;;1.88;0.95;;;;;;;;;;5021498;28;20511;-50
2022/10/03 03:24:24;;;;;;;;;;;;;;;;;;5022903;28;20045;-53
2022/10/03 03:27:12;;;;;;;1.77;0.90;;;;;;;;;;5021055;28;19917;-53
2022/10/03 03:30:03;;;;;;;4.38;1.00;;;;;;;;;;5022492;28;20406;-50
2022/10/03 03:33:01;;;;;;;2.97;1.17;;;;;;;;;;5012130;28;20425;-50
2022/10/03 03:35:51;;;;;;;9.02;0.80;;;;;;;;;;5021972;28;20086;-52
2022/10/03 03:38:57;;;;;;;3.88;1.00;;;;;;;;;;5022087;28;20224;-49
2022/10/03 03:41:40;;;;;;;4.10;0.77;;;;;;;;;;5020606;28;20048;-52
2022/10/03 03:44:45;;;;;;;3.22;1.00;;;;;;;;;;5019821;28;20060;-54
2022/10/03 03:47:35;;;;;;;3.25;0.85;;;;;;;;;;5019106;28;20033;-48
2022/10/03 03:50:11;;;;;;;2.42;0.90;;;;;;;;;;5036718;28;20052;-54
2022/10/03 03:52:56;;;;;;;1.83;0.80;;;;;;;;;;5063174;28;20147;-54
2022/10/03 03:55:34;;;;;;;3.60;1.00;;;;;;;;;;5060490;28;20040;-52
2022/10/03 03:58:06;;;;;;;4.32;1.02;;;;;;;;;;5056674;28;20063;-50
2022/10/03 04:00:55;;;;;;;1.42;1.05;;;;;;;;;;5064482;28;20032;-50
2022/10/03 04:04:02;;;;;;;2.38;0.98;;;;;;;;;;5064919;28;20028;-49
2022/10/03 04:06:45;;;;;;;0.80;0.77;;;;;;;;;;5062188;28;20045;-52
2022/10/03 04:09:29;;;;;;;2.05;0.70;;;;;;;;;;5058895;28;20047;-50
2022/10/03 04:11:58;;;;;;;3.30;1.13;;;;;;;;;;5061759;28;20056;-52
2022/10/03 04:14:43;;;;;;;2.47;0.80;;;;;;;;;;5063647;28;20053;-50
2022/10/03 04:20:01;;;;;;;3.90;1.10;;;;;;;;;;5061500;28;20854;-49
2022/10/03 04:22:57;;;;;;;3.50;1.27;;;;;;;;;;5065258;28;20033;-48
2022/10/03 04:25:49;;;;;;;2.42;1.10;;;;;;;;;;5081170;28;20051;-52
2022/10/03 04:28:27;;;;;;;3.72;1.10;;;;;;;;;;5085438;28;20114;-50
2022/10/03 04:30:54;;;;;;;4.10;1.15;;;;;;;;;;5065816;28;20044;-47
2022/10/03 04:33:47;;;;;;;2.63;1.17;;;;;;;;;;5067751;28;20032;-50
2022/10/03 04:36:34;;;;;;;2.13;1.05;;;;;;;;;;5082852;28;20544;-51
2022/10/03 04:39:21;;;;;;;4.18;1.23;;;;;;;;;;5075517;28;20037;-49
2022/10/03 04:41:56;;;;;;;1.25;0.82;;;;;;;;;;5064013;28;20040;-48
2022/10/03 04:44:54;;;;;;;6.07;1.20;;;;;;;;;;5063377;28;20033;-50
2022/10/03 04:47:30;;;;;;;1.77;1.10;;;;;;;;;;5061981;28;20032;-52
2022/10/03 04:50:23;;;;;;;1.58;0.93;;;;;;;;;;5075521;28;20048;-52
2022/10/03 04:53:18;;;;;;;1.13;0.80;;;;;;;;;;5082249;28;20369;-49
2022/10/03 04:55:55;;;;;;;3.92;1.00;;;;;;;;;;5081454;28;20419;-52
2022/10/03 04:58:42;;;;;;;2.08;1.15;;;;;;;;;;5080512;28;20054;-48
2022/10/03 05:02:01;;;;;;;4.13;1.10;;;;;;;;;;5083002;28;20036;-53
2022/10/03 05:05:11;;;;;;;2.28;1.02;;;;;;;;;;5041038;28;20128;-51
2022/10/03 05:07:54;;;;;;;5.18;1.70;;;;;;;;;;5000284;28;20052;-49
2022/10/03 05:10:30;;;;;;;3.40;1.10;;;;;;;;;;4984402;28;20050;-52
2022/10/03 05:13:21;;;;;;;3.28;1.42;;;;;;;;;;4983046;28;20721;-50
2022/10/03 05:16:03;;;;;;;4.80;1.00;;;;;;;;;;5002513;28;20053;-49
2022/10/03 05:18:40;;;;;;;3.72;1.17;;;;;;;;;;4997590;28;20290;-48
2022/10/03 05:21:23;;;;;;;4.22;1.05;;;;;;;;;;4982175;28;20157;-51
2022/10/03 05:24:18;;;;;;;3.30;1.50;;;;;;;;;;4985399;28;20053;-50
2022/10/03 05:26:49;;;;;;;3.40;1.17;;;;;;;;;;5001556;28;20041;-50
2022/10/03 05:29:45;;;;;;;1.80;1.33;;;;;;;;;;4998800;28;20163;-50
2022/10/03 05:32:26;;;;;;;5.07;1.35;;;;;;;;;;4980041;28;20046;-49
2022/10/03 05:35:10;;;;;;;4.05;1.00;;;;;;;;;;4979794;28;20046;-51
2022/10/03 05:37:54;;;;;;;2.63;1.35;;;;;;;;;;4976605;28;20116;-49
2022/10/03 05:40:28;;;;;;;4.47;1.45;;;;;;;;;;4955171;28;20047;-49
2022/10/03 05:43:04;;;;;;;3.53;1.25;;;;;;;;;;4963078;28;20039;-48
2022/10/03 05:45:43;;;;;;;7.75;1.00;;;;;;;;;;4997947;28;20048;-50
2022/10/03 05:48:32;;;;;;;5.93;1.13;;;;;;;;;;5000159;28;20057;-52
2022/10/03 05:51:38;;;;;;;3.80;1.00;;;;;;;;;;4993402;28;20052;-53
2022/10/03 05:54:31;;;;;;;3.38;1.08;;;;;;;;;;5000386;28;20127;-49
2022/10/03 05:57:24;;;;;;;3.83;1.30;;;;;;;;;;4999071;28;20045;-50
2022/10/03 06:00:06;;;;;;;6.18;1.08;;;;;;;;;;5002530;28;20042;-49
2022/10/03 06:02:56;;;;;;;7.20;1.27;;;;;;;;;;5006980;28;20053;-50
2022/10/03 06:05:24;;;;;;;1.05;0.90;;;;;;;;;;5001758;28;20164;-53
2022/10/03 06:08:08;;;;;;;3.40;1.00;;;;;;;;;;5001301;28;20034;-53
2022/10/03 06:10:55;;;;;;;2.80;1.20;;;;;;;;;;5078700;28;20047;-54
2022/10/03 06:13:20;;;;;;;3.63;1.00;;;;;;;;;;5079027;28;20039;-48
2022/10/03 06:16:04;;;;;;;3.70;1.30;;;;;;;;;;5062509;28;20029;-52
2022/10/03 06:18:46;;;;;;;3.38;1.27;;;;;;;;;;5061646;28;20032;-50
2022/10/03 06:21:49;;;;;;;3.55;1.55;;;;;;;;;;5087166;28;20063;-49
2022/10/03 06:24:34;;;;;;;5.80;1.33;;;;;;;;;;5084966;27;20557;-49
2022/10/03 06:27:14;;;;;;;6.38;1.38;;;;;;;;;;5082010;28;20476;-52
2022/10/03 06:29:45;;;;;;;4.57;1.15;;;;;;;;;;5080260;28;20055;-49
2022/10/03 06:32:16;;;;;;;5.47;1.10;;;;;;;;;;5085419;28;20020;-50
2022/10/03 06:35:16;;;;;;;3.37;1.43;;;;;;;;;;5067389;28;20032;-47
2022/10/03 06:38:15;;;;;;;2.63;1.00;;;;;;;;;;5062277;28;20789;-52
2022/10/03 06:40:43;;;;;;;2.67;1.10;;;;;;;;;;5057801;28;20548;-49
2022/10/03 06:43:30;;;;;;;6.13;1.27;;;;;;;;;;5066953;28;20024;-50
2022/10/03 06:46:26;;;;;;;2.22;0.93;;;;;;;;;;5063126;28;20063;-50
2022/10/03 06:49:30;;;;;;;7.53;1.33;;;;;;;;;;5069770;28;20501;-50
2022/10/03 06:52:29;;;;;;;3.15;1.15;;;;;;;;;;5086146;28;20031;-50
2022/10/03 06:55:17;;;;;;;2.70;1.20;;;;;;;;;;5081454;28;20092;-50
2022/10/03 06:58:18;;;;;;;4.55;1.05;;;;;;;;;;5078921;28;20404;-49
2022/10/03 07:00:56;;;;;;;1.40;0.95;;;;;;;;;;5082402;28;21855;-49
2022/10/03 07:03:43;;;;;;;0.75;0.70;;;;;;;;;;5082282;28;20024;-53
2022/10/03 07:06:20;;;;;;;4.32;1.02;;;;;;;;;;5082807;28;20024;-54
2022/10/03 07:09:23;;;;;;;4.00;0.90;;;;;;;;;;5086147;28;20492;-53
2022/10/03 07:12:05;;;;;;;1.10;1.00;;;;;;;;;;5084986;28;20028;-52
2022/10/03 07:14:54;;;;;;;1.23;0.75;;;;;;;;;;5073869;28;20037;-50
2022/10/03 07:17:40;;;;;;;4.15;1.13;;;;;;;;;;5066168;28;20082;-50
2022/10/03 07:20:32;;;;;;;5.30;1.00;;;;;;;;;;5077488;28;20515;-48
2022/10/03 07:23:38;;;;;;;3.95;1.30;;;;;;;;;;5083440;28;20047;-49
2022/10/03 07:26:33;;;;;;;2.50;1.00;;;;;;;;;;5061827;28;20045;-53
2022/10/03 07:29:14;;;;;;;3.13;0.88;;;;;;;;;;5022655;28;20037;-54
2022/10/03 07:31:39;;;;;;;5.72;1.00;;;;;;;;;;5025042;28;20041;-51
2022/10/03 07:34:29;;;;;;;0.80;0.65;;;;;;;;;;5021156;28;20571;-51
2022/10/03 07:40:23;;;;;;;3.65;1.00;;;;;;;;;;5036296;28;20052;-51
2022/10/03 07:43:07;;;;;;;1.95;0.98;;;;;;;;;;5040520;28;20548;-53
2022/10/03 07:45:36;;;;;;;2.47;0.93;;;;;;;;;;5041892;28;20052;-50
2022/10/03 07:48:17;;;;;;;3.63;0.90;;;;;;;;;;5043712;28;20064;-52
2022/10/03 07:50:49;;;;;;;5.35;0.80;;;;;;;;;;5041670;28;20072;-51
2022/10/03 07:53:52;;;;;;;2.88;0.98;;;;;;;;;;5044590;28;20441;-49
2022/10/03 07:56:41;;;;;;;8.77;2.00;;;;;;;;;;5039935;28;20049;-52
2022/10/03 07:59:22;;;;;;;4.78;1.55;;;;;;;;;;5039420;28;20065;-50
2022/10/03 08:02:23;;;;;;;1.90;0.85;;;;;;;;;;5042412;28;20033;-52
2022/10/03 08:04:48;;;;;;;2.35;1.10;;;;;;;;;;5029405;28;20059;-51
2022/10/03 08:07:35;;;;;;;2.22;1.20;;;;;;;;;;5063941;28;20138;-53
2022/10/03 08:10:09;;;;;;;2.42;1.00;;;;;;;;;;5078113;28;20040;-52
2022/10/03 08:12:50;;;;;;;2.40;0.88;;;;;;;;;;5082701;28;20055;-50
2022/10/03 08:15:28;;;;;;;4.28;1.02;;;;;;;;;;5082903;28;20116;-51
2022/10/03 08:18:12;;;;;;;1.65;0.93;;;;;;;;;;5086561;28;20055;-53
2022/10/03 08:20:53;;;;;;;3.33;1.08;;;;;;;;;;5065197;28;20086;-51
2022/10/03 08:23:46;;;;;;;3.70;1.27;;;;;;;;;;5060666;28;20120;-48
2022/10/03 08:26:29;;;;;;;4.35;0.82;;;;;;;;;;5062684;28;20400;-50
2022/10/03 08:29:17;;;;;;;6.60;2.33;;;;;;;;;;5058174;28;20047;-51
2022/10/03 08:32:00;;;;;;;3.70;0.90;;;;;;;;;;5059866;28;20073;-48
2022/10/03 08:35:01;;;;;;;3.72;1.30;;;;;;;;;;5070998;28;20040;-49
2022/10/03 08:37:35;;;;;;;2.78;1.10;;;;;;;;;;5023666;28;20184;-54
2022/10/03 08:40:28;;;;;;;2.97;0.90;;;;;;;;;;5022321;28;20640;-50
2022/10/03 08:42:59;;;;;;;2.42;1.25;;;;;;;;;;5023357;28;20041;-51
2022/10/03 08:46:12;;;;;;;7.43;0.80;;;;;;;;;;5025128;28;20140;-52
2022/10/03 08:48:57;;;;;;;2.47;0.85;;;;;;;;;;4962257;28;20126;-52
2022/10/03 08:51:48;;;;;;;8.07;1.98;;;;;;;;;;4961759;28;20039;-55
2022/10/03 08:54:35;;;;;;;2.65;1.10;;;;;;;;;;4962565;28;20070;-48
2022/10/03 08:57:07;;;;;;;6.30;1.23;;;;;;;;;;4961811;28;20488;-48
2022/10/03 08:59:58;;;;;;;3.10;0.95;;;;;;;;;;4962199;28;20050;-50
2022/10/03 09:02:40;;;;;;;4.40;0.95;;;;;;;;;;4964103;28;20046;-50
2022/10/03 09:05:06;;;;;;;;;;;;;;;;;;4964819;28;20408;-50
2022/10/03 09:08:07;;;;;;;4.07;1.00;;;;;;;;;;4965549;28;19945;-52
2022/10/03 09:10:54;;;;;;;1.45;0.90;;;;;;;;;;4963218;28;20088;-52
2022/10/03 09:13:36;;;;;;;1.02;0.80;;;;;;;;;;4973326;28;20042;-51
2022/10/03 09:16:04;;;;;;;2.00;0.98;;;;;;;;;;5023048;28;20037;-54
2022/10/03 09:19:00;;;;;;;4.80;1.00;;;;;;;;;;5020599;28;20038;-50
2022/10/03 09:21:55;;;;;;;2.20;0.80;;;;;;;;;;5022280;28;20414;-52
2022/10/03 09:24:45;;;;;;;6.03;0.95;;;;;;;;;;5040394;28;20131;-51
2022/10/03 09:27:24;;;;;;;6.32;1.42;;;;;;;;;;5082308;28;20471;-51
2022/10/03 09:30:04;;;;;;;6.75;1.20;;;;;;;;;;5084059;28;20040;-48
2022/10/03 09:32:52;;;;;;;1.52;0.82;;;;;;;;;;5082427;28;20028;-51
2022/10/03 09:35:32;;;;;;;4.35;0.65;;;;;;;;;;5066527;28;20072;-53
2022/10/03 09:38:35;;;;;;;3.75;1.00;;;;;;;;;;5068069;28;20102;-53
2022/10/03 09:41:19;;;;;;;;;;;;;;;;;;5065575;28;20045;-50
2022/10/03 09:44:22;;;;;;;3.35;0.95;;;;;;;;;;5067623;28;19977;-52
2022/10/03 09:47:26;;;;;;;2.30;1.33;;;;;;;;;;5047389;28;20053;-51
2022/10/03 09:50:18;;;;;;;7.32;0.90;;;;;;;;;;5045344;28;20114;-51
2022/10/03 09:52:52;;;;;;;5.38;1.42;;;;;;;;;;5045624;28;20029;-52
2022/10/03 09:55:45;;;;;;;2.50;0.95;;;;;;;;;;5029325;28;20545;-52
2022/10/03 09:58:32;;;;;;;2.97;1.58;;;;;;;;;;5024791;28;20278;-51
2022/10/03 10:01:12;;;;;;;2.13;0.80;;;;;;;;;;5046283;28;20033;-53
2022/10/03 10:04:11;;;;;;;2.55;1.02;;;;;;;;;;5042070;28;20144;-51
2022/10/03 10:07:09;;;;;;;4.18;1.20;;;;;;;;;;5046347;28;20091;-52
2022/10/03 10:10:05;;;;;;;4.32;1.00;;;;;;;;;;5007258;28;20042;-52
2022/10/03 10:12:39;;;;;;;4.47;1.10;;;;;;;;;;5006017;28;20133;-51
2022/10/03 10:15:14;;;;;;;4.78;1.02;;;;;;;;;;5002888;28;20050;-50
2022/10/03 10:18:15;;;;;;;4.90;1.52;;;;;;;;;;5006209;28;20044;-53
2022/10/03 10:21:16;;;;;;;1.88;0.80;;;;;;;;;;4967982;28;20574;-50
2022/10/03 10:24:15;;;;;;;1.15;0.82;;;;;;;;;;4991691;28;20049;-50
2022/10/03 10:27:25;;;;;;;2.38;0.80;;;;;;;;;;4986597;28;20043;-53
2022/10/03 10:29:56;;;;;;;2.53;1.13;;;;;;;;;;4985273;28;20046;-51
2022/10/03 10:32:58;;;;;;;1.20;0.82;;;;;;;;;;4988417;28;20035;-52
2022/10/03 10:35:50;;;;;;;0.85;0.75;;;;;;;;;;4987692;28;20042;-52
2022/10/03 10:38:25;;;;;;;2.08;1.05;;;;;;;;;;4992059;28;20034;-49
2022/10/03 10:41:17;;;;;;;1.35;0.90;;;;;;;;;;4987421;28;20027;-52
2022/10/03 10:44:06;;;;;;;2.40;1.00;;;;;;;;;;4991192;28;20687;-49
2022/10/03 10:46:31;;;;;;;5.28;0.95;;;;;;;;;;5042132;28;20056;-53
2022/10/03 10:49:18;;;;;;;3.53;0.65;;;;;;;;;;5059162;28;20067;-49
2022/10/03 10:52:02;;;;;;;2.53;1.02;;;;;;;;;;5065865;28;20492;-51
2022/10/03 10:54:49;;;;;;;2.90;1.15;;;;;;;;;;5060973;28;20135;-47
2022/10/03 10:57:33;;;;;;;2.30;0.95;;;;;;;;;;5073844;28;20044;-51
2022/10/03 11:00:14;;;;;;;3.25;1.02;;;;;;;;;;5086226;28;20124;-50
2022/10/03 11:02:45;;;;;;;1.42;0.90;;;;;;;;;;5086232;28;20035;-49
2022/10/03 11:06:01;;;;;;;3.17;0.90;;;;;;;;;;5084013;28;20048;-53
2022/10/03 11:08:51;;;;;;;2.20;0.88;;;;;;;;;;5083396;28;20284;-49
2022/10/03 11:11:31;;;;;;;2.63;0.90;;;;;;;;;;5085625;28;20107;-50
2022/10/03 11:14:35;;;;;;;2.03;0.90;;;;;;;;;;5089850;28;20386;-50
2022/10/03 11:17:26;;;;;;;1.70;0.90;;;;;;;;;;5086531;28;20033;-54
2022/10/03 11:20:20;;;;;;;3.15;0.85;;;;;;;;;;5083826;28;20058;-48
2022/10/03 11:22:59;;;;;;;2.58;1.05;;;;;;;;;;5085759;28;20134;-50
2022/10/03 11:25:43;;;;;;;1.25;0.90;;;;;;;;;;5065412;28;20566;-49
2022/10/03 11:28:32;;;;;;;2.00;0.90;;;;;;;;;;5065579;28;20396;-53
2022/10/03 11:31:39;;;;;;;1.25;0.90;;;;;;;;;;5064228;28;20484;-50
2022/10/03 11:34:42;;;;;;;2.70;0.93;;;;;;;;;;5018323;28;20081;-52
2022/10/03 11:37:13;;;;;;;1.83;1.17;;;;;;;;;;5014713;28;20029;-51
2022/10/03 11:39:48;;;;;;;2.72;0.80;;;;;;;;;;5019982;28;20124;-55
2022/10/03 11:42:17;;;;;;;2.47;0.75;;;;;;;;;;5024731;28;20021;-47
2022/10/03 11:44:56;;;;;;;6.72;1.20;;;;;;;;;;5017748;28;20049;-51
2022/10/03 11:47:49;;;;;;;1.42;0.80;;;;;;;;;;5017629;28;20554;-51
2022/10/03 11:50:33;;;;;;;6.78;1.77;;;;;;;;;;5017299;28;20048;-50
2022/10/03 11:53:46;;;;;;;3.80;1.10;;;;;;;;;;5014847;28;20440;-47
2022/10/03 11:56:32;;;;;;;2.28;1.13;;;;;;;;;;4980501;28;20046;-51
2022/10/03 11:59:29;;;;;;;5.22;1.10;;;;;;;;;;4985968;28;20057;-50
2022/10/03 12:02:30;;;;;;;3.05;1.10;;;;;;;;;;5003166;28;20426;-51
2022/10/03 12:05:01;;;;;;;2.50;1.65;;;;;;;;;;5003156;28;20121;-49
2022/10/03 12:11:05;;;;;;;0.98;0.80;;;;;;;;;;4995639;28;20057;-51
2022/10/03 12:13:57;;;;;;;6.05;1.00;;;;;;;;;;4985693;28;20085;-52
2022/10/03 12:16:28;;;;;;;1.90;0.90;;;;;;;;;;5001497;28;20069;-53
2022/10/03 12:19:16;;;;;;;2.28;1.05;;;;;;;;;;5000111;28;20046;-52
2022/10/03 12:22:07;;;;;;;3.22;0.80;;;;;;;;;;4985004;28;20584;-51
2022/10/03 12:24:44;;;;;;;2.15;0.93;;;;;;;;;;4992462;28;20494;-51
2022/10/03 12:27:09;;;;;;;2.75;1.10;;;;;;;;;;5006609;28;20034;-52
2022/10/03 12:29:39;;;;;;;3.60;0.98;;;;;;;;;;5000895;28;20060;-52
2022/10/03 12:32:18;;;;;;;1.05;0.88;;;;;;;;;;5064352;28;20193;-51
2022/10/03 12:35:08;;;;;;;1.50;1.00;;;;;;;;;;5084606;28;20043;-51
2022/10/03 12:37:56;;;;;;;1.42;0.82;;;;;;;;;;5077461;28;20024;-54
2022/10/03 12:40:40;;;;;;;2.90;0.80;;;;;;;;;;5081743;28;20070;-49
2022/10/03 12:43:06;;;;;;;5.00;1.23;;;;;;;;;;5086513;28;20016;-53
2022/10/03 12:45:35;;;;;;;5.03;0.85;;;;;;;;;;5065135;28;20455;-54
2022/10/03 12:48:25;;;;;;;3.83;1.23;;;;;;;;;;5065205;28;20509;-52
2022/10/03 12:51:05;;;;;;;1.73;0.88;;;;;;;;;;5063858;28;20099;-52
2022/10/03 12:53:40;;;;;;;5.93;1.23;;;;;;;;;;5064142;28;20031;-53
2022/10/03 12:56:24;;;;;;;6.20;1.42;;;;;;;;;;5088882;28;20067;-51
2022/10/03 12:58:54;;;;;;;2.50;1.25;;;;;;;;;;5077910;28;20036;-51
2022/10/03 13:01:57;;;;;;;8.57;1.60;;;;;;;;;;5063058;28;20033;-52
2022/10/03 13:04:46;;;;;;;4.07;1.50;;;;;;;;;;5066414;28;20407;-53
2022/10/03 13:07:27;;;;;;;2.20;1.10;;;;;;;;;;5068514;28;20028;-52
2022/10/03 13:10:08;;;;;;;3.33;1.20;;;;;;;;;;5064084;28;20048;-49
2022/10/03 13:12:38;;;;;;;2.15;1.10;;;;;;;;;;5067573;28;20028;-52
2022/10/03 13:15:36;;;;;;;4.28;1.60;;;;;;;;;;5069534;28;20396;-49
2022/10/03 13:18:35;;;;;;;2.60;1.20;;;;;;;;;;5063102;28;20161;-52
2022/10/03 13:21:40;;;;;;;1.95;1.08;;;;;;;;;;5065298;28;20083;-50
2022/10/03 13:24:13;;;;;;;4.25;0.82;;;;;;;;;;5064880;28;20443;-50
2022/10/03 13:27:03;;;;;;;3.85;1.20;;;;;;;;;;5063524;28;20059;-53
2022/10/03 13:29:39;;;;;;;1.83;0.98;;;;;;;;;;5075696;28;20028;-53
2022/10/03 13:32:09;;;;;;;2.72;1.00;;;;;;;;;;5085604;28;20107;-52
2022/10/03 13:38:20;;;;;;;4.20;0.88;;;;;;;;;;5086026;28;20100;-53
2022/10/03 13:41:02;;;;;;;2.60;1.13;;;;;;;;;;5087453;28;20036;-55
2022/10/03 13:43:35;;;;;;;1.15;0.90;;;;;;;;;;5081239;28;20031;-52
2022/10/03 13:46:07;;;;;;;4.13;1.08;;;;;;;;;;5071660;28;20032;-51
2022/10/03 13:48:34;;;;;;;3.53;1.20;;;;;;;;;;5070162;28;20052;-51
2022/10/03 13:51:20;;;;;;;4.60;1.00;;;;;;;;;;5087755;28;20093;-50
2022/10/03 13:54:01;;;;;;;3.42;1.48;;;;;;;;;;5073484;28;20041;-53
2022/10/03 13:56:48;;;;;;;6.25;1.02;;;;;;;;;;5086740;28;20461;-54
2022/10/03 13:59:40;;;;;;;4.25;1.10;;;;;;;;;;5084329;28;20052;-55
2022/10/03 14:02:06;;;;;;;5.55;1.05;;;;;;;;;;5086325;28;20039;-52
2022/10/03 14:04:55;;;;;;;3.53;1.17;;;;;;;;;;5091300;28;20040;-54
2022/10/03 14:07:58;;;;;;;3.92;1.17;;;;;;;;;;5089041;28;20042;-54
2022/10/03 14:10:48;;;;;;;2.90;1.15;;;;;;;;;;5083907;28;20163;-50
2022/10/03 14:13:27;;;;;;;1.63;1.08;;;;;;;;;;5081553;28;20028;-49
2022/10/03 14:16:02;;;;;;;4.00;1.10;;;;;;;;;;5087641;28;20718;-50
2022/10/03 14:18:46;;;;;;;2.80;0.80;;;;;;;;;;5082344;28;20035;-52
2022/10/03 14:21:31;;;;;;;1.50;0.90;;;;;;;;;;5085582;28;20404;-54
2022/10/03 14:24:35;;;;;;;3.22;0.90;;;;;;;;;;5083641;28;20093;-50
2022/10/03 14:27:30;;;;;;;2.75;0.77;;;;;;;;;;5080985;28;20067;-51
2022/10/03 14:30:08;;;;;;;1.63;1.10;;;;;;;;;;5080652;28;20286;-51
2022/10/03 14:32:52;;;;;;;4.05;1.48;;;;;;;;;;5084522;28;20028;-51
2022/10/03 14:35:36;;;;;;;6.22;1.27;;;;;;;;;;5083198;28;20084;-48
2022/10/03 14:38:04;;;;;;;1.83;1.00;;;;;;;;;;5087554;28;20032;-50
2022/10/03 14:40:48;;;;;;;1.65;1.40;;;;;;;;;;5064951;28;20065;-51
2022/10/03 14:43:34;;;;;;;4.88;1.20;;;;;;;;;;5063746;28;20663;-51
2022/10/03 14:46:02;;;;;;;5.47;1.08;;;;;;;;;;5067644;28;20048;-53
2022/10/03 14:48:33;;;;;;;3.05;1.15;;;;;;;;;;5064787;28;20027;-53
2022/10/03 14:51:12;;;;;;;7.05;1.20;;;;;;;;;;5084578;28;20157;-51
2022/10/03 14:53:44;;;;;;;1.95;1.10;;;;;;;;;;5083898;28;20040;-51
2022/10/03 14:56:12;;;;;;;2.70;1.17;;;;;;;;;;5088837;28;20468;-51
2022/10/03 14:58:44;;;;;;;2.13;1.10;;;;;;;;;;5084219;28;20435;-52
2022/10/03 15:01:20;;;;;;;6.13;1.40;;;;;;;;;;5081950;28;20031;-51
2022/10/03 15:04:00;;;;;;;1.60;1.10;;;;;;;;;;5084477;28;20036;-51
2022/10/03 15:06:44;;;;;;;6.97;1.38;;;;;;;;;;5082772;28;20044;-52
2022/10/03 15:09:13;;;;;;;3.88;1.10;;;;;;;;;;5086577;28;20093;-49
2022/10/03 15:11:51;;;;;;;2.67;1.38;;;;;;;;;;5084158;28;20073;-53
2022/10/03 15:14:17;;;;;;;2.30;1.15;;;;;;;;;;5086620;28;20071;-52
2022/10/03 15:16:55;;;;;;;2.90;1.30;;;;;;;;;;5077199;28;20043;-54
2022/10/03 15:19:29;;;;;;;4.18;1.15;;;;;;;;;;5086602;28;20032;-51
2022/10/03 15:22:03;;;;;;;2.40;1.20;;;;;;;;;;5084708;28;20043;-53
2022/10/03 15:24:33;;;;;;;2.15;1.08;;;;;;;;;;5082917;28;20090;-54
2022/10/03 15:27:18;;;;;;;1.45;0.65;;;;;;;;;;5087471;28;20036;-53
2022/10/03 15:29:45;;;;;;;0.95;0.68;;;;;;;;;;5073790;28;20029;-54
2022/10/03 15:32:45;;;;;;;2.10;1.02;;;;;;;;;;5066612;28;20021;-52
2022/10/03 15:35:19;;;;;;;4.68;1.05;;;;;;;;;;5005241;28;20038;-48
2022/10/03 15:37:45;;;;;;;0.80;0.80;;;;;;;;;;5001687;28;20165;-51
2022/10/03 15:40:33;;;;;;;0.85;0.82;;;;;;;;;;5021940;28;20044;-51
2022/10/03 15:43:16;;;;;;;2.45;0.95;;;;;;;;;;5027554;28;20033;-52
2022/10/03 15:45:42;;;;;;;1.27;0.70;;;;;;;;;;5022675;28;20045;-52
2022/10/03 15:48:14;;;;;;;1.55;0.70;;;;;;;;;;5025977;28;20148;-52
2022/10/03 15:50:42;;;;;;;2.30;0.70;;;;;;;;;;5017568;28;20120;-53
2022/10/03 15:53:12;;;;;;;1.17;0.73;;;;;;;;;;5018936;28;20514;-50
2022/10/03 15:55:48;;;;;;;3.13;0.90;;;;;;;;;;5020287;28;20072;-54
2022/10/03 15:58:21;;;;;;;0.95;0.60;;;;;;;;;;5019977;28;20059;-52
2022/10/03 16:01:04;;;;;;;2.70;0.80;;;;;;;;;;5010513;28;20045;-52
2022/10/03 16:03:59;;;;;;;2.28;0.80;;;;;;;;;;5003521;28;20118;-51
2022/10/03 16:06:49;;;;;;;3.97;0.70;;;;;;;;;;5011027;28;20038;-54
2022/10/03 16:09:20;;;;;;;5.15;0.85;;;;;;;;;;5021964;28;20545;-51
2022/10/03 16:12:01;;;;;;;0.70;0.60;;;;;;;;;;5071376;28;20079;-50
2022/10/03 16:14:40;;;;;;;2.42;0.85;;;;;;;;;;5084500;28;20399;-52
2022/10/03 16:17:20;;;;;;;0.80;0.77;;;;;;;;;;5081089;28;20035;-54
2022/10/03 16:19:57;;;;;;;0.80;0.80;;;;;;;;;;5081459;28;20040;-53
2022/10/03 16:22:46;;;;;;;2.55;0.88;;;;;;;;;;5082101;28;20039;-50
2022/10/03 16:25:16;;;;;;;3.65;1.00;;;;;;;;;;5079602;28;20044;-50
2022/10/03 16:27:51;;;;;;;3.45;1.00;;;;;;;;;;5074136;28;20077;-49
2022/10/03 16:30:26;;;;;;;2.63;0.90;;;;;;;;;;5079472;28;20060;-52
2022/10/03 16:33:19;;;;;;;10.13;1.23;;;;;;;;;;5058125;28;20033;-53
2022/10/03 16:36:09;;;;;;;1.70;0.80;;;;;;;;;;5064188;28;20564;-54
2022/10/03 16:38:37;;;;;;;1.13;0.82;;;;;;;;;;5051726;28;20051;-50
2022/10/03 16:41:18;;;;;;;1.98;0.90;;;;;;;;;;5060454;28;20609;-52
2022/10/03 16:43:54;;;;;;;2.78;0.75;;;;;;;;;;5057040;28;20047;-52